sensor_id;sensor_type;location;lat;lon;timestamp;temperature;humidity
54178;DHT22;40085;53.004;6.770;2022-10-16T00:00:17;12.10;99.90
54178;DHT22;40085;53.004;6.770;2022-10-16T00:02:43;12.10;99.90
54178;DHT22;40085;53.004;6.770;2022-10-16T00:05:09;12.10;99.90
54178;DHT22;40085;53.004;6.770;2022-10-16T00:07:35;12.10;99.90
54178;DHT22;40085;53.004;6.770;2022-10-16T00:10:00;12.10;99.90
54178;DHT22;40085;53.004;6.770;2022-10-16T00:12:26;12.10;99.90
54178;DHT22;40085;53.004;6.770;2022-10-16T00:14:52;12.10;99.90
54178;DHT22;40085;53.004;6.770;2022-10-16T00:17:17;12.10;99.90
54178;DHT22;40085;53.004;6.770;2022-10-16T00:19:43;12.10;99.90
54178;DHT22;40085;53.004;6.770;2022-10-16T00:22:09;12.10;99.90
54178;DHT22;40085;53.004;6.770;2022-10-16T00:24:34;12.10;99.90
54178;DHT22;40085;53.004;6.770;2022-10-16T00:27:00;12.10;99.90
54178;DHT22;40085;53.004;6.770;2022-10-16T00:29:26;12.10;99.90
54178;DHT22;40085;53.004;6.770;2022-10-16T00:31:51;12.10;99.90
54178;DHT22;40085;53.004;6.770;2022-10-16T00:34:17;12.10;99.90
54178;DHT22;40085;53.004;6.770;2022-10-16T00:36:42;12.10;99.90
54178;DHT22;40085;53.004;6.770;2022-10-16T00:39:08;12.30;99.90
54178;DHT22;40085;53.004;6.770;2022-10-16T00:41:34;12.10;99.90
54178;DHT22;40085;53.004;6.770;2022-10-16T00:44:02;12.40;99.90
54178;DHT22;40085;53.004;6.770;2022-10-16T00:46:39;12.10;99.90
54178;DHT22;40085;53.004;6.770;2022-10-16T00:49:11;12.10;99.90
54178;DHT22;40085;53.004;6.770;2022-10-16T00:54:09;12.10;99.90
54178;DHT22;40085;53.004;6.770;2022-10-16T00:56:35;12.00;99.90
54178;DHT22;40085;53.004;6.770;2022-10-16T00:59:03;12.10;99.90
54178;DHT22;40085;53.004;6.770;2022-10-16T01:01:30;12.10;99.90
54178;DHT22;40085;53.004;6.770;2022-10-16T01:03:56;12.00;99.90
54178;DHT22;40085;53.004;6.770;2022-10-16T01:06:24;12.10;99.90
54178;DHT22;40085;53.004;6.770;2022-10-16T01:20:08;12.10;99.90
54178;DHT22;40085;53.004;6.770;2022-10-16T01:28:21;12.10;99.90
54178;DHT22;40085;53.004;6.770;2022-10-16T01:30:51;12.10;99.90
54178;DHT22;40085;53.004;6.770;2022-10-16T01:33:25;12.10;99.90
54178;DHT22;40085;53.004;6.770;2022-10-16T01:35:54;12.10;99.90
54178;DHT22;40085;53.004;6.770;2022-10-16T01:38:32;12.10;99.90
54178;DHT22;40085;53.004;6.770;2022-10-16T01:41:03;12.10;99.90
54178;DHT22;40085;53.004;6.770;2022-10-16T01:43:35;12.20;99.90
54178;DHT22;40085;53.004;6.770;2022-10-16T01:46:02;12.20;99.90
54178;DHT22;40085;53.004;6.770;2022-10-16T01:48:29;12.20;99.90
54178;DHT22;40085;53.004;6.770;2022-10-16T01:51:11;12.20;99.90
54178;DHT22;40085;53.004;6.770;2022-10-16T01:53:38;12.30;99.90
54178;DHT22;40085;53.004;6.770;2022-10-16T01:56:08;12.20;99.90
54178;DHT22;40085;53.004;6.770;2022-10-16T01:58:37;12.30;99.90
54178;DHT22;40085;53.004;6.770;2022-10-16T02:01:07;12.30;99.90
54178;DHT22;40085;53.004;6.770;2022-10-16T02:03:35;12.30;99.90
54178;DHT22;40085;53.004;6.770;2022-10-16T02:06:02;12.30;99.90
54178;DHT22;40085;53.004;6.770;2022-10-16T02:08:29;12.70;99.90
54178;DHT22;40085;53.004;6.770;2022-10-16T02:11:00;12.30;99.90
54178;DHT22;40085;53.004;6.770;2022-10-16T02:13:34;12.30;99.90
54178;DHT22;40085;53.004;6.770;2022-10-16T02:16:01;12.30;99.90
54178;DHT22;40085;53.004;6.770;2022-10-16T02:18:26;12.20;99.90
54178;DHT22;40085;53.004;6.770;2022-10-16T02:21:17;12.30;99.90
54178;DHT22;40085;53.004;6.770;2022-10-16T02:26:13;12.20;99.90
54178;DHT22;40085;53.004;6.770;2022-10-16T02:28:46;12.30;99.90
54178;DHT22;40085;53.004;6.770;2022-10-16T02:31:18;12.30;99.90
54178;DHT22;40085;53.004;6.770;2022-10-16T02:33:46;12.30;99.90
54178;DHT22;40085;53.004;6.770;2022-10-16T02:36:12;12.30;99.90
54178;DHT22;40085;53.004;6.770;2022-10-16T02:38:39;12.30;99.90
54178;DHT22;40085;53.004;6.770;2022-10-16T02:41:05;12.30;99.90
54178;DHT22;40085;53.004;6.770;2022-10-16T02:43:31;12.30;99.90
54178;DHT22;40085;53.004;6.770;2022-10-16T02:45:58;12.30;99.90
54178;DHT22;40085;53.004;6.770;2022-10-16T02:48:24;12.30;99.90
54178;DHT22;40085;53.004;6.770;2022-10-16T02:50:50;12.40;99.90
54178;DHT22;40085;53.004;6.770;2022-10-16T02:53:16;12.40;99.90
54178;DHT22;40085;53.004;6.770;2022-10-16T02:55:42;12.40;99.90
54178;DHT22;40085;53.004;6.770;2022-10-16T02:58:10;12.40;99.90
54178;DHT22;40085;53.004;6.770;2022-10-16T03:00:36;12.40;99.90
54178;DHT22;40085;53.004;6.770;2022-10-16T03:03:02;12.40;99.90
54178;DHT22;40085;53.004;6.770;2022-10-16T03:05:37;12.40;99.90
54178;DHT22;40085;53.004;6.770;2022-10-16T03:08:02;12.40;99.90
54178;DHT22;40085;53.004;6.770;2022-10-16T03:10:28;12.40;99.90
54178;DHT22;40085;53.004;6.770;2022-10-16T03:12:54;12.40;99.90
54178;DHT22;40085;53.004;6.770;2022-10-16T03:15:20;12.60;99.90
54178;DHT22;40085;53.004;6.770;2022-10-16T03:17:45;12.60;99.90
54178;DHT22;40085;53.004;6.770;2022-10-16T03:20:11;12.40;99.90
54178;DHT22;40085;53.004;6.770;2022-10-16T03:22:37;12.40;99.90
54178;DHT22;40085;53.004;6.770;2022-10-16T03:25:03;12.40;99.90
54178;DHT22;40085;53.004;6.770;2022-10-16T03:27:34;12.20;99.90
54178;DHT22;40085;53.004;6.770;2022-10-16T03:30:00;12.50;99.90
54178;DHT22;40085;53.004;6.770;2022-10-16T03:32:26;12.50;99.90
54178;DHT22;40085;53.004;6.770;2022-10-16T03:34:54;12.50;99.90
54178;DHT22;40085;53.004;6.770;2022-10-16T03:37:24;12.50;99.90
54178;DHT22;40085;53.004;6.770;2022-10-16T03:39:50;12.50;99.90
54178;DHT22;40085;53.004;6.770;2022-10-16T03:42:17;12.50;99.90
54178;DHT22;40085;53.004;6.770;2022-10-16T03:44:42;12.50;99.90
54178;DHT22;40085;53.004;6.770;2022-10-16T03:47:08;12.50;99.90
54178;DHT22;40085;53.004;6.770;2022-10-16T03:49:34;12.40;99.90
54178;DHT22;40085;53.004;6.770;2022-10-16T03:51:59;12.40;99.90
54178;DHT22;40085;53.004;6.770;2022-10-16T03:54:25;12.40;99.90
54178;DHT22;40085;53.004;6.770;2022-10-16T03:56:51;12.40;99.90
54178;DHT22;40085;53.004;6.770;2022-10-16T03:59:17;12.40;99.90
54178;DHT22;40085;53.004;6.770;2022-10-16T04:01:43;12.40;99.90
54178;DHT22;40085;53.004;6.770;2022-10-16T04:04:08;12.40;99.90
54178;DHT22;40085;53.004;6.770;2022-10-16T04:06:34;12.40;99.90
54178;DHT22;40085;53.004;6.770;2022-10-16T04:09:00;12.40;99.90
54178;DHT22;40085;53.004;6.770;2022-10-16T04:11:25;12.30;99.90
54178;DHT22;40085;53.004;6.770;2022-10-16T04:13:51;12.30;99.90
54178;DHT22;40085;53.004;6.770;2022-10-16T04:16:17;12.30;99.90
54178;DHT22;40085;53.004;6.770;2022-10-16T04:18:42;12.30;99.90
54178;DHT22;40085;53.004;6.770;2022-10-16T04:21:08;12.20;99.90
54178;DHT22;40085;53.004;6.770;2022-10-16T04:23:34;12.20;99.90
54178;DHT22;40085;53.004;6.770;2022-10-16T04:26:00;12.20;99.90
54178;DHT22;40085;53.004;6.770;2022-10-16T04:28:26;12.20;99.90
54178;DHT22;40085;53.004;6.770;2022-10-16T04:30:52;12.20;99.90
54178;DHT22;40085;53.004;6.770;2022-10-16T04:33:18;12.30;99.90
54178;DHT22;40085;53.004;6.770;2022-10-16T04:35:44;11.90;99.90
54178;DHT22;40085;53.004;6.770;2022-10-16T04:38:12;12.30;99.90
54178;DHT22;40085;53.004;6.770;2022-10-16T04:40:38;12.30;99.90
54178;DHT22;40085;53.004;6.770;2022-10-16T04:43:04;12.30;99.90
54178;DHT22;40085;53.004;6.770;2022-10-16T04:45:30;12.30;99.90
54178;DHT22;40085;53.004;6.770;2022-10-16T04:47:57;12.30;99.90
54178;DHT22;40085;53.004;6.770;2022-10-16T04:50:23;12.20;99.90
54178;DHT22;40085;53.004;6.770;2022-10-16T04:52:49;12.20;99.90
54178;DHT22;40085;53.004;6.770;2022-10-16T04:55:15;12.20;99.90
54178;DHT22;40085;53.004;6.770;2022-10-16T04:57:41;12.20;99.90
54178;DHT22;40085;53.004;6.770;2022-10-16T05:00:10;12.20;99.90
54178;DHT22;40085;53.004;6.770;2022-10-16T05:02:36;12.30;99.90
54178;DHT22;40085;53.004;6.770;2022-10-16T05:05:02;12.30;99.90
54178;DHT22;40085;53.004;6.770;2022-10-16T05:07:28;12.30;99.90
54178;DHT22;40085;53.004;6.770;2022-10-16T05:09:54;12.30;99.90
54178;DHT22;40085;53.004;6.770;2022-10-16T05:12:19;12.40;99.90
54178;DHT22;40085;53.004;6.770;2022-10-16T05:14:45;12.40;99.90
54178;DHT22;40085;53.004;6.770;2022-10-16T05:17:11;12.40;99.90
54178;DHT22;40085;53.004;6.770;2022-10-16T05:19:40;12.40;99.90
54178;DHT22;40085;53.004;6.770;2022-10-16T05:22:05;12.40;99.90
54178;DHT22;40085;53.004;6.770;2022-10-16T05:24:31;12.50;99.90
54178;DHT22;40085;53.004;6.770;2022-10-16T05:26:57;12.50;99.90
54178;DHT22;40085;53.004;6.770;2022-10-16T05:29:22;12.40;99.90
54178;DHT22;40085;53.004;6.770;2022-10-16T05:31:54;12.50;99.90
54178;DHT22;40085;53.004;6.770;2022-10-16T05:34:21;12.50;99.90
54178;DHT22;40085;53.004;6.770;2022-10-16T05:36:46;12.40;99.90
54178;DHT22;40085;53.004;6.770;2022-10-16T05:39:14;12.50;99.90
54178;DHT22;40085;53.004;6.770;2022-10-16T05:41:40;12.40;99.90
54178;DHT22;40085;53.004;6.770;2022-10-16T05:44:06;12.50;99.90
54178;DHT22;40085;53.004;6.770;2022-10-16T05:46:32;12.50;99.90
54178;DHT22;40085;53.004;6.770;2022-10-16T05:48:58;12.40;99.90
54178;DHT22;40085;53.004;6.770;2022-10-16T05:51:23;12.50;99.90
54178;DHT22;40085;53.004;6.770;2022-10-16T05:53:49;12.50;99.90
54178;DHT22;40085;53.004;6.770;2022-10-16T05:56:15;12.50;99.90
54178;DHT22;40085;53.004;6.770;2022-10-16T05:58:41;12.50;99.90
54178;DHT22;40085;53.004;6.770;2022-10-16T06:01:11;12.50;99.90
54178;DHT22;40085;53.004;6.770;2022-10-16T06:03:37;12.50;99.90
54178;DHT22;40085;53.004;6.770;2022-10-16T06:06:15;12.50;99.90
54178;DHT22;40085;53.004;6.770;2022-10-16T06:08:42;12.50;99.90
54178;DHT22;40085;53.004;6.770;2022-10-16T06:11:19;12.50;99.90
54178;DHT22;40085;53.004;6.770;2022-10-16T06:13:49;12.50;99.90
54178;DHT22;40085;53.004;6.770;2022-10-16T06:16:18;12.50;99.90
54178;DHT22;40085;53.004;6.770;2022-10-16T06:18:44;13.10;99.90
54178;DHT22;40085;53.004;6.770;2022-10-16T06:21:14;12.50;99.90
54178;DHT22;40085;53.004;6.770;2022-10-16T06:23:41;12.50;99.90
54178;DHT22;40085;53.004;6.770;2022-10-16T06:26:12;12.50;99.90
54178;DHT22;40085;53.004;6.770;2022-10-16T06:28:38;12.50;99.90
54178;DHT22;40085;53.004;6.770;2022-10-16T06:31:05;12.50;99.90
54178;DHT22;40085;53.004;6.770;2022-10-16T06:33:32;12.50;99.90
54178;DHT22;40085;53.004;6.770;2022-10-16T06:36:08;12.50;99.90
54178;DHT22;40085;53.004;6.770;2022-10-16T06:38:35;12.50;99.90
54178;DHT22;40085;53.004;6.770;2022-10-16T06:41:01;12.50;99.90
54178;DHT22;40085;53.004;6.770;2022-10-16T06:43:29;12.50;99.90
54178;DHT22;40085;53.004;6.770;2022-10-16T06:45:58;12.50;99.90
54178;DHT22;40085;53.004;6.770;2022-10-16T06:48:24;12.60;99.90
54178;DHT22;40085;53.004;6.770;2022-10-16T06:51:12;12.60;99.90
54178;DHT22;40085;53.004;6.770;2022-10-16T06:53:46;12.60;99.90
54178;DHT22;40085;53.004;6.770;2022-10-16T06:56:22;12.60;99.90
54178;DHT22;40085;53.004;6.770;2022-10-16T06:58:48;12.60;99.90
54178;DHT22;40085;53.004;6.770;2022-10-16T07:01:16;12.60;99.90
54178;DHT22;40085;53.004;6.770;2022-10-16T07:03:43;12.70;99.90
54178;DHT22;40085;53.004;6.770;2022-10-16T07:06:11;12.80;99.90
54178;DHT22;40085;53.004;6.770;2022-10-16T07:08:39;12.80;99.90
54178;DHT22;40085;53.004;6.770;2022-10-16T07:11:07;12.80;99.90
54178;DHT22;40085;53.004;6.770;2022-10-16T07:13:35;12.80;99.90
54178;DHT22;40085;53.004;6.770;2022-10-16T07:16:11;12.80;99.90
54178;DHT22;40085;53.004;6.770;2022-10-16T07:18:37;12.90;99.90
54178;DHT22;40085;53.004;6.770;2022-10-16T07:21:07;12.90;99.90
54178;DHT22;40085;53.004;6.770;2022-10-16T07:23:33;12.90;99.90
54178;DHT22;40085;53.004;6.770;2022-10-16T07:25:59;13.00;99.90
54178;DHT22;40085;53.004;6.770;2022-10-16T07:28:25;13.00;99.90
54178;DHT22;40085;53.004;6.770;2022-10-16T07:30:50;13.00;99.90
54178;DHT22;40085;53.004;6.770;2022-10-16T07:33:16;13.00;99.90
54178;DHT22;40085;53.004;6.770;2022-10-16T07:35:52;13.10;99.90
54178;DHT22;40085;53.004;6.770;2022-10-16T07:38:19;13.10;99.90
54178;DHT22;40085;53.004;6.770;2022-10-16T07:40:45;13.20;99.90
54178;DHT22;40085;53.004;6.770;2022-10-16T07:43:11;13.20;99.90
54178;DHT22;40085;53.004;6.770;2022-10-16T07:45:37;13.30;99.90
54178;DHT22;40085;53.004;6.770;2022-10-16T07:48:03;13.30;99.90
54178;DHT22;40085;53.004;6.770;2022-10-16T07:50:29;13.40;99.90
54178;DHT22;40085;53.004;6.770;2022-10-16T07:52:55;13.40;99.90
54178;DHT22;40085;53.004;6.770;2022-10-16T07:55:20;13.40;99.90
54178;DHT22;40085;53.004;6.770;2022-10-16T07:57:46;13.50;99.90
54178;DHT22;40085;53.004;6.770;2022-10-16T08:00:12;13.50;99.90
54178;DHT22;40085;53.004;6.770;2022-10-16T08:02:42;13.50;99.90
54178;DHT22;40085;53.004;6.770;2022-10-16T08:05:08;13.50;99.90
54178;DHT22;40085;53.004;6.770;2022-10-16T08:07:34;13.50;99.90
54178;DHT22;40085;53.004;6.770;2022-10-16T08:09:59;13.50;99.90
54178;DHT22;40085;53.004;6.770;2022-10-16T08:12:26;13.50;99.90
54178;DHT22;40085;53.004;6.770;2022-10-16T08:14:51;13.50;99.90
54178;DHT22;40085;53.004;6.770;2022-10-16T08:17:17;13.50;99.90
54178;DHT22;40085;53.004;6.770;2022-10-16T08:19:46;13.50;99.90
54178;DHT22;40085;53.004;6.770;2022-10-16T08:22:13;13.60;99.90
54178;DHT22;40085;53.004;6.770;2022-10-16T08:24:39;13.60;99.90
54178;DHT22;40085;53.004;6.770;2022-10-16T08:27:06;13.60;99.90
54178;DHT22;40085;53.004;6.770;2022-10-16T08:29:32;13.60;99.90
54178;DHT22;40085;53.004;6.770;2022-10-16T08:31:58;13.80;99.90
54178;DHT22;40085;53.004;6.770;2022-10-16T08:34:24;13.80;99.90
54178;DHT22;40085;53.004;6.770;2022-10-16T08:36:49;13.90;99.90
54178;DHT22;40085;53.004;6.770;2022-10-16T08:39:16;13.80;99.90
54178;DHT22;40085;53.004;6.770;2022-10-16T08:42:08;13.80;99.90
54178;DHT22;40085;53.004;6.770;2022-10-16T08:47:43;13.90;99.90
54178;DHT22;40085;53.004;6.770;2022-10-16T08:50:19;14.00;99.90
54178;DHT22;40085;53.004;6.770;2022-10-16T08:52:46;14.10;99.90
54178;DHT22;40085;53.004;6.770;2022-10-16T08:56:04;14.10;99.90
54178;DHT22;40085;53.004;6.770;2022-10-16T08:58:17;14.20;99.90
54178;DHT22;40085;53.004;6.770;2022-10-16T09:01:04;14.20;99.90
54178;DHT22;40085;53.004;6.770;2022-10-16T09:14:34;14.60;99.90
54178;DHT22;40085;53.004;6.770;2022-10-16T09:19:53;14.60;99.90
54178;DHT22;40085;53.004;6.770;2022-10-16T09:22:22;14.60;99.90
54178;DHT22;40085;53.004;6.770;2022-10-16T09:24:51;14.60;99.90
54178;DHT22;40085;53.004;6.770;2022-10-16T09:27:17;14.60;99.90
54178;DHT22;40085;53.004;6.770;2022-10-16T09:29:43;14.60;99.90
54178;DHT22;40085;53.004;6.770;2022-10-16T09:32:12;14.60;99.90
54178;DHT22;40085;53.004;6.770;2022-10-16T09:34:43;14.70;99.90
54178;DHT22;40085;53.004;6.770;2022-10-16T09:37:14;14.70;99.90
54178;DHT22;40085;53.004;6.770;2022-10-16T09:39:54;14.80;99.90
54178;DHT22;40085;53.004;6.770;2022-10-16T09:42:32;14.90;99.90
54178;DHT22;40085;53.004;6.770;2022-10-16T09:44:59;14.90;99.90
54178;DHT22;40085;53.004;6.770;2022-10-16T09:47:26;15.00;99.90
54178;DHT22;40085;53.004;6.770;2022-10-16T09:49:53;15.00;99.90
54178;DHT22;40085;53.004;6.770;2022-10-16T09:52:21;15.00;99.90
54178;DHT22;40085;53.004;6.770;2022-10-16T09:55:14;15.20;99.90
54178;DHT22;40085;53.004;6.770;2022-10-16T09:57:54;15.20;99.90
54178;DHT22;40085;53.004;6.770;2022-10-16T10:00:21;15.20;99.90
54178;DHT22;40085;53.004;6.770;2022-10-16T10:02:47;15.30;99.90
54178;DHT22;40085;53.004;6.770;2022-10-16T10:05:26;15.40;99.90
54178;DHT22;40085;53.004;6.770;2022-10-16T10:07:58;15.50;99.90
54178;DHT22;40085;53.004;6.770;2022-10-16T10:10:30;15.70;99.90
54178;DHT22;40085;53.004;6.770;2022-10-16T10:12:56;15.90;99.90
54178;DHT22;40085;53.004;6.770;2022-10-16T10:15:23;16.00;99.90
54178;DHT22;40085;53.004;6.770;2022-10-16T10:17:55;16.10;99.90
54178;DHT22;40085;53.004;6.770;2022-10-16T10:20:35;16.20;99.90
54178;DHT22;40085;53.004;6.770;2022-10-16T10:23:39;16.10;99.90
54178;DHT22;40085;53.004;6.770;2022-10-16T10:26:18;16.00;99.90
54178;DHT22;40085;53.004;6.770;2022-10-16T10:29:06;16.10;99.90
54178;DHT22;40085;53.004;6.770;2022-10-16T10:32:00;16.10;99.90
54178;DHT22;40085;53.004;6.770;2022-10-16T10:35:11;16.10;99.90
54178;DHT22;40085;53.004;6.770;2022-10-16T10:37:55;16.10;99.90
54178;DHT22;40085;53.004;6.770;2022-10-16T10:40:46;16.10;99.90
54178;DHT22;40085;53.004;6.770;2022-10-16T10:45:48;15.90;99.90
54178;DHT22;40085;53.004;6.770;2022-10-16T10:48:25;16.00;99.90
54178;DHT22;40085;53.004;6.770;2022-10-16T10:51:00;15.90;99.90
54178;DHT22;40085;53.004;6.770;2022-10-16T10:56:52;15.80;99.90
54178;DHT22;40085;53.004;6.770;2022-10-16T11:02:41;16.00;99.90
54178;DHT22;40085;53.004;6.770;2022-10-16T11:08:22;15.90;99.90
54178;DHT22;40085;53.004;6.770;2022-10-16T11:10:57;15.90;99.90
54178;DHT22;40085;53.004;6.770;2022-10-16T11:13:31;15.90;99.90
54178;DHT22;40085;53.004;6.770;2022-10-16T11:16:01;15.90;99.90
54178;DHT22;40085;53.004;6.770;2022-10-16T11:18:45;16.10;99.90
54178;DHT22;40085;53.004;6.770;2022-10-16T11:21:14;16.20;99.90
54178;DHT22;40085;53.004;6.770;2022-10-16T11:26:41;16.20;99.10
54178;DHT22;40085;53.004;6.770;2022-10-16T11:29:16;16.20;99.90
54178;DHT22;40085;53.004;6.770;2022-10-16T11:31:47;16.20;99.90
54178;DHT22;40085;53.004;6.770;2022-10-16T11:34:36;16.20;99.90
54178;DHT22;40085;53.004;6.770;2022-10-16T11:39:35;16.10;97.40
54178;DHT22;40085;53.004;6.770;2022-10-16T11:42:12;16.20;98.90
54178;DHT22;40085;53.004;6.770;2022-10-16T11:47:41;16.40;96.50
54178;DHT22;40085;53.004;6.770;2022-10-16T11:55:40;16.70;95.40
54178;DHT22;40085;53.004;6.770;2022-10-16T12:01:15;16.60;94.60
54178;DHT22;40085;53.004;6.770;2022-10-16T12:08:54;16.30;95.70
54178;DHT22;40085;53.004;6.770;2022-10-16T12:14:32;16.50;92.80
54178;DHT22;40085;53.004;6.770;2022-10-16T12:19:22;16.90;95.70
54178;DHT22;40085;53.004;6.770;2022-10-16T12:21:48;17.10;90.70
54178;DHT22;40085;53.004;6.770;2022-10-16T12:24:34;17.30;90.20
54178;DHT22;40085;53.004;6.770;2022-10-16T12:27:00;17.20;92.70
54178;DHT22;40085;53.004;6.770;2022-10-16T12:29:47;17.00;92.00
54178;DHT22;40085;53.004;6.770;2022-10-16T12:32:44;16.90;90.00
54178;DHT22;40085;53.004;6.770;2022-10-16T12:35:28;16.80;90.00
54178;DHT22;40085;53.004;6.770;2022-10-16T12:38:08;16.60;91.10
54178;DHT22;40085;53.004;6.770;2022-10-16T12:40:38;16.50;91.00
54178;DHT22;40085;53.004;6.770;2022-10-16T12:43:57;16.40;85.60
54178;DHT22;40085;53.004;6.770;2022-10-16T12:46:05;16.30;89.90
54178;DHT22;40085;53.004;6.770;2022-10-16T12:48:32;16.30;91.60
54178;DHT22;40085;53.004;6.770;2022-10-16T12:53:37;16.40;85.00
54178;DHT22;40085;53.004;6.770;2022-10-16T12:56:08;16.40;80.70
54178;DHT22;40085;53.004;6.770;2022-10-16T13:01:41;16.50;76.20
54178;DHT22;40085;53.004;6.770;2022-10-16T13:04:26;16.50;78.50
54178;DHT22;40085;53.004;6.770;2022-10-16T13:07:28;16.40;70.10
54178;DHT22;40085;53.004;6.770;2022-10-16T13:15:22;16.60;74.30
54178;DHT22;40085;53.004;6.770;2022-10-16T13:20:51;16.60;69.20
54178;DHT22;40085;53.004;6.770;2022-10-16T13:28:49;16.50;20.20
54178;DHT22;40085;53.004;6.770;2022-10-16T13:31:24;16.50;1.00
54178;DHT22;40085;53.004;6.770;2022-10-16T13:33:56;16.50;1.00
54178;DHT22;40085;53.004;6.770;2022-10-16T13:36:30;16.40;1.00
54178;DHT22;40085;53.004;6.770;2022-10-16T13:39:10;16.40;1.00
54178;DHT22;40085;53.004;6.770;2022-10-16T13:41:37;16.40;1.00
54178;DHT22;40085;53.004;6.770;2022-10-16T13:44:03;16.40;1.00
54178;DHT22;40085;53.004;6.770;2022-10-16T13:46:29;16.30;1.00
54178;DHT22;40085;53.004;6.770;2022-10-16T13:49:04;16.30;1.00
54178;DHT22;40085;53.004;6.770;2022-10-16T13:51:32;16.30;1.00
54178;DHT22;40085;53.004;6.770;2022-10-16T13:53:58;16.20;1.00
54178;DHT22;40085;53.004;6.770;2022-10-16T13:56:32;16.20;1.00
54178;DHT22;40085;53.004;6.770;2022-10-16T13:59:03;16.20;1.00
54178;DHT22;40085;53.004;6.770;2022-10-16T14:01:31;16.20;1.00
54178;DHT22;40085;53.004;6.770;2022-10-16T14:04:07;16.10;1.00
54178;DHT22;40085;53.004;6.770;2022-10-16T14:06:35;16.20;1.00
54178;DHT22;40085;53.004;6.770;2022-10-16T14:09:06;16.10;1.00
54178;DHT22;40085;53.004;6.770;2022-10-16T14:11:33;16.10;1.00
54178;DHT22;40085;53.004;6.770;2022-10-16T14:14:02;16.00;1.00
54178;DHT22;40085;53.004;6.770;2022-10-16T14:16:30;16.00;1.00
54178;DHT22;40085;53.004;6.770;2022-10-16T14:19:03;15.90;1.00
54178;DHT22;40085;53.004;6.770;2022-10-16T14:21:30;15.90;1.00
54178;DHT22;40085;53.004;6.770;2022-10-16T14:23:57;15.90;1.00
54178;DHT22;40085;53.004;6.770;2022-10-16T14:26:26;15.80;4.80
54178;DHT22;40085;53.004;6.770;2022-10-16T14:29:13;15.80;1.00
54178;DHT22;40085;53.004;6.770;2022-10-16T14:31:40;15.70;1.00
54178;DHT22;40085;53.004;6.770;2022-10-16T14:34:24;15.70;10.20
54178;DHT22;40085;53.004;6.770;2022-10-16T14:36:50;15.80;1.00
54178;DHT22;40085;53.004;6.770;2022-10-16T14:39:20;15.80;3.20
54178;DHT22;40085;53.004;6.770;2022-10-16T14:41:50;15.80;16.80
54178;DHT22;40085;53.004;6.770;2022-10-16T14:44:22;15.80;15.70
54178;DHT22;40085;53.004;6.770;2022-10-16T14:46:50;15.80;19.90
54178;DHT22;40085;53.004;6.770;2022-10-16T14:49:18;15.80;23.40
54178;DHT22;40085;53.004;6.770;2022-10-16T14:51:45;15.80;28.80
54178;DHT22;40085;53.004;6.770;2022-10-16T14:54:16;15.80;29.80
54178;DHT22;40085;53.004;6.770;2022-10-16T14:56:48;15.90;31.60
54178;DHT22;40085;53.004;6.770;2022-10-16T14:59:37;15.90;29.40
54178;DHT22;40085;53.004;6.770;2022-10-16T15:02:25;15.90;29.10
54178;DHT22;40085;53.004;6.770;2022-10-16T15:04:52;15.80;31.10
54178;DHT22;40085;53.004;6.770;2022-10-16T15:07:18;15.90;36.80
54178;DHT22;40085;53.004;6.770;2022-10-16T15:09:44;15.80;35.50
54178;DHT22;40085;53.004;6.770;2022-10-16T15:12:09;15.80;41.30
54178;DHT22;40085;53.004;6.770;2022-10-16T15:14:35;15.80;48.80
54178;DHT22;40085;53.004;6.770;2022-10-16T15:17:01;15.70;52.40
54178;DHT22;40085;53.004;6.770;2022-10-16T15:19:26;15.70;57.30
54178;DHT22;40085;53.004;6.770;2022-10-16T15:21:52;15.70;62.60
54178;DHT22;40085;53.004;6.770;2022-10-16T15:24:18;15.70;59.00
54178;DHT22;40085;53.004;6.770;2022-10-16T15:26:44;15.60;57.30
54178;DHT22;40085;53.004;6.770;2022-10-16T15:29:12;15.60;59.80
54178;DHT22;40085;53.004;6.770;2022-10-16T15:31:38;15.50;64.10
54178;DHT22;40085;53.004;6.770;2022-10-16T15:34:04;15.40;64.90
54178;DHT22;40085;53.004;6.770;2022-10-16T15:36:37;15.40;65.60
54178;DHT22;40085;53.004;6.770;2022-10-16T15:39:04;15.40;67.40
54178;DHT22;40085;53.004;6.770;2022-10-16T15:41:30;15.30;69.30
54178;DHT22;40085;53.004;6.770;2022-10-16T15:43:55;15.20;71.30
54178;DHT22;40085;53.004;6.770;2022-10-16T15:46:23;15.20;72.40
54178;DHT22;40085;53.004;6.770;2022-10-16T15:48:50;15.10;73.60
54178;DHT22;40085;53.004;6.770;2022-10-16T15:51:17;15.10;76.10
54178;DHT22;40085;53.004;6.770;2022-10-16T15:53:43;15.10;79.20
54178;DHT22;40085;53.004;6.770;2022-10-16T15:56:12;14.90;81.20
54178;DHT22;40085;53.004;6.770;2022-10-16T15:58:38;14.80;85.20
54178;DHT22;40085;53.004;6.770;2022-10-16T16:01:05;14.80;89.00
54178;DHT22;40085;53.004;6.770;2022-10-16T16:03:32;14.70;90.00
54178;DHT22;40085;53.004;6.770;2022-10-16T16:05:58;14.60;89.10
54178;DHT22;40085;53.004;6.770;2022-10-16T16:08:28;14.50;89.80
54178;DHT22;40085;53.004;6.770;2022-10-16T16:11:09;14.50;90.20
54178;DHT22;40085;53.004;6.770;2022-10-16T16:13:35;14.40;91.00
54178;DHT22;40085;53.004;6.770;2022-10-16T16:16:09;14.40;90.90
54178;DHT22;40085;53.004;6.770;2022-10-16T16:18:35;14.30;90.90
54178;DHT22;40085;53.004;6.770;2022-10-16T16:21:01;14.20;90.80
54178;DHT22;40085;53.004;6.770;2022-10-16T16:23:27;14.20;92.00
54178;DHT22;40085;53.004;6.770;2022-10-16T16:26:15;14.10;93.50
54178;DHT22;40085;53.004;6.770;2022-10-16T16:28:49;14.00;93.40
54178;DHT22;40085;53.004;6.770;2022-10-16T16:31:15;13.90;94.50
54178;DHT22;40085;53.004;6.770;2022-10-16T16:33:40;13.80;94.90
54178;DHT22;40085;53.004;6.770;2022-10-16T16:36:06;13.70;95.30
54178;DHT22;40085;53.004;6.770;2022-10-16T16:38:33;13.60;96.30
54178;DHT22;40085;53.004;6.770;2022-10-16T16:40:58;13.60;95.60
54178;DHT22;40085;53.004;6.770;2022-10-16T16:43:26;13.50;96.60
54178;DHT22;40085;53.004;6.770;2022-10-16T16:45:52;13.50;97.30
54178;DHT22;40085;53.004;6.770;2022-10-16T16:48:18;13.40;98.30
54178;DHT22;40085;53.004;6.770;2022-10-16T16:50:44;13.40;99.00
54178;DHT22;40085;53.004;6.770;2022-10-16T16:53:10;13.30;99.60
54178;DHT22;40085;53.004;6.770;2022-10-16T16:55:36;13.40;99.90
54178;DHT22;40085;53.004;6.770;2022-10-16T16:58:01;13.20;99.90
54178;DHT22;40085;53.004;6.770;2022-10-16T17:00:29;13.10;99.90
54178;DHT22;40085;53.004;6.770;2022-10-16T17:02:56;13.10;99.90
54178;DHT22;40085;53.004;6.770;2022-10-16T17:05:22;13.00;99.90
54178;DHT22;40085;53.004;6.770;2022-10-16T17:07:48;12.90;99.90
54178;DHT22;40085;53.004;6.770;2022-10-16T17:10:14;12.90;99.90
54178;DHT22;40085;53.004;6.770;2022-10-16T17:12:40;12.90;99.90
54178;DHT22;40085;53.004;6.770;2022-10-16T17:15:06;12.80;99.90
54178;DHT22;40085;53.004;6.770;2022-10-16T17:17:32;12.70;99.90
54178;DHT22;40085;53.004;6.770;2022-10-16T17:19:59;12.70;99.90
54178;DHT22;40085;53.004;6.770;2022-10-16T17:22:25;12.60;99.90
54178;DHT22;40085;53.004;6.770;2022-10-16T17:24:50;12.60;99.90